Time;durP1;ratioP1;P1;durP2;ratioP2;P2;SDS_P1;SDS_P2;PMS_P1;PMS_P2;Temp;Humidity;BMP_temperature;BMP_pressure;BME280_temperature;BME280_humidity;BME280_pressure;Samples;Min_cycle;Max_cycle;Signal;HPM_P1;HPM_P2
2021/01/02 00:00:12;;;;;;;26.50;14.23;;;3.30;99.90;;;;;;4931210;28;20443;-83
2021/01/02 00:03:14;;;;;;;28.33;15.20;;;3.20;99.90;;;;;;4935795;28;20556;-82
2021/01/02 00:06:12;;;;;;;25.53;14.80;;;3.20;99.90;;;;;;4940332;28;20437;-83
2021/01/02 00:08:38;;;;;;;27.93;14.40;;;3.20;99.90;;;;;;4903612;28;20501;-83
2021/01/02 00:11:23;;;;;;;27.60;15.40;;;3.20;99.90;;;;;;4941200;28;20427;-83
2021/01/02 00:14:07;;;;;;;27.03;14.07;;;3.20;99.90;;;;;;4950529;28;20819;-81
2021/01/02 00:17:07;;;;;;;29.50;15.43;;;3.20;99.90;;;;;;4951440;28;20542;-82
2021/01/02 00:20:05;;;;;;;32.30;14.60;;;3.20;99.90;;;;;;4930600;28;20478;-78
2021/01/02 00:22:34;;;;;;;24.40;13.50;;;3.20;99.90;;;;;;4928647;28;20427;-81
2021/01/02 00:25:15;;;;;;;23.33;15.50;;;3.30;99.90;;;;;;4929674;28;20576;-82
2021/01/02 00:27:44;;;;;;;21.20;13.40;;;3.30;99.90;;;;;;4942370;28;20469;-81
2021/01/02 00:30:24;;;;;;;24.67;15.17;;;3.40;99.90;;;;;;4949743;28;20506;-82
2021/01/02 00:32:58;;;;;;;23.00;14.43;;;3.40;99.90;;;;;;4945576;28;20430;-83
2021/01/02 00:35:27;;;;;;;27.73;14.70;;;3.40;99.90;;;;;;4931871;28;20431;-78
2021/01/02 00:38:03;;;;;;;27.67;15.40;;;3.30;99.90;;;;;;4914364;28;20998;-79
2021/01/02 00:40:29;;;;;;;25.90;15.63;;;3.20;99.90;;;;;;4919221;28;21006;-82
2021/01/02 00:42:57;;;;;;;24.60;14.30;;;3.20;99.90;;;;;;4932739;28;20456;-82
2021/01/02 00:45:26;;;;;;;25.73;15.67;;;3.30;99.90;;;;;;4946227;28;20822;-81
2021/01/02 00:47:53;;;;;;;23.90;15.17;;;3.40;99.90;;;;;;4931659;28;20443;-81
2021/01/02 00:50:21;;;;;;;29.17;15.07;;;3.40;99.90;;;;;;4930348;28;20467;-82
2021/01/02 00:52:49;;;;;;;29.27;15.60;;;3.40;99.90;;;;;;4949906;28;20553;-82
2021/01/02 00:55:30;;;;;;;24.73;15.17;;;3.50;99.90;;;;;;4945776;28;20478;-80
2021/01/02 00:58:58;;;;;;;24.80;14.57;;;3.50;99.90;;;;;;4946579;28;20936;-81
2021/01/02 01:01:45;;;;;;;17.67;12.83;;;3.60;99.90;;;;;;4853382;29;20579;-80
2021/01/02 01:04:44;;;;;;;24.27;15.43;;;3.50;99.90;;;;;;4913597;28;20443;-83
2021/01/02 01:07:17;;;;;;;21.10;13.77;;;3.50;99.90;;;;;;4933146;28;20462;-81
2021/01/02 01:09:50;;;;;;;27.00;15.10;;;3.60;99.90;;;;;;4933344;28;20498;-81
2021/01/02 01:12:19;;;;;;;22.80;14.77;;;3.60;99.90;;;;;;4931044;28;20529;-82
2021/01/02 01:14:53;;;;;;;29.20;16.23;;;3.60;99.90;;;;;;4947817;28;20431;-81
2021/01/02 01:17:24;;;;;;;23.53;14.63;;;3.70;99.90;;;;;;4929897;28;20490;-81
2021/01/02 01:20:05;;;;;;;23.87;13.43;;;3.70;99.90;;;;;;4931207;28;20442;-82
2021/01/02 01:22:41;;;;;;;22.27;15.00;;;3.70;99.90;;;;;;4947552;28;20805;-80
2021/01/02 01:25:07;;;;;;;20.90;12.93;;;3.70;99.90;;;;;;4930699;28;20521;-85
2021/01/02 01:27:57;;;;;;;23.67;14.27;;;3.70;99.90;;;;;;4931428;28;20609;-79
2021/01/02 01:30:35;;;;;;;24.27;13.83;;;3.70;99.90;;;;;;4944708;28;20823;-83
2021/01/02 01:33:06;;;;;;;22.87;14.17;;;3.70;99.90;;;;;;4932210;28;20441;-83
2021/01/02 01:35:40;;;;;;;26.80;13.20;;;3.70;99.90;;;;;;4945657;28;20442;-84
2021/01/02 01:38:16;;;;;;;21.53;13.90;;;3.60;99.90;;;;;;4933574;28;20439;-84
2021/01/02 01:41:03;;;;;;;27.70;14.10;;;3.50;99.90;;;;;;4931416;28;20974;-79
2021/01/02 01:44:07;;;;;;;24.87;15.10;;;3.60;99.90;;;;;;4951187;28;20422;-81
2021/01/02 01:46:36;;;;;;;25.33;14.30;;;3.50;99.90;;;;;;4947635;28;20470;-82
2021/01/02 01:49:20;;;;;;;23.50;14.90;;;3.60;99.90;;;;;;4934172;28;20872;-84
2021/01/02 01:52:05;;;;;;;22.43;14.20;;;3.70;99.90;;;;;;4931410;28;20485;-84
2021/01/02 01:54:50;;;;;;;25.10;14.97;;;3.70;99.90;;;;;;4930467;28;20828;-81
2021/01/02 01:57:28;;;;;;;28.07;14.67;;;3.60;99.90;;;;;;4962050;28;20436;-84
2021/01/02 01:59:59;;;;;;;28.07;15.07;;;3.60;99.90;;;;;;4948740;28;20442;-82
2021/01/02 02:02:47;;;;;;;24.93;14.40;;;3.70;99.90;;;;;;4949162;28;20574;-80
2021/01/02 02:05:24;;;;;;;25.33;15.10;;;3.80;99.90;;;;;;4925644;28;20452;-82
2021/01/02 02:08:08;;;;;;;18.77;12.07;;;3.70;99.90;;;;;;4929222;28;20549;-83
2021/01/02 02:11:03;;;;;;;23.87;13.60;;;3.80;99.90;;;;;;4928053;28;20478;-82
2021/01/02 02:13:32;;;;;;;25.73;13.80;;;3.90;99.90;;;;;;4928338;28;20450;-80
2021/01/02 02:15:59;;;;;;;22.00;13.87;;;3.90;99.90;;;;;;4923155;28;20544;-80
2021/01/02 02:18:42;;;;;;;23.23;12.73;;;3.90;99.90;;;;;;4927313;28;20435;-83
2021/01/02 02:21:28;;;;;;;23.10;14.20;;;3.90;99.90;;;;;;4913188;28;20826;-82
2021/01/02 02:24:05;;;;;;;28.60;13.40;;;3.90;99.90;;;;;;4929436;28;20446;-82
2021/01/02 02:26:39;;;;;;;21.67;12.70;;;3.90;99.90;;;;;;4946056;28;20532;-81
2021/01/02 02:29:13;;;;;;;21.77;12.43;;;3.80;99.90;;;;;;4929248;28;21035;-84
2021/01/02 02:31:46;;;;;;;21.37;13.53;;;3.90;99.90;;;;;;4941411;28;20446;-84
2021/01/02 02:34:15;;;;;;;24.37;14.03;;;3.80;99.90;;;;;;4949598;28;20427;-81
2021/01/02 02:36:44;;;;;;;25.00;14.97;;;3.80;99.90;;;;;;4929274;28;20495;-84
2021/01/02 02:39:12;;;;;;;18.73;12.10;;;3.90;99.90;;;;;;4930347;28;21028;-82
2021/01/02 02:41:51;;;;;;;23.17;14.27;;;3.90;99.90;;;;;;4929403;28;20427;-80
2021/01/02 02:44:23;;;;;;;21.87;14.30;;;3.90;99.90;;;;;;4931071;28;20438;-84
2021/01/02 02:46:54;;;;;;;26.43;13.27;;;4.00;99.90;;;;;;4930275;28;20486;-83
2021/01/02 02:49:26;;;;;;;23.73;14.20;;;4.00;99.90;;;;;;4945592;28;20466;-82
2021/01/02 02:52:30;;;;;;;22.37;12.57;;;4.00;99.90;;;;;;4928612;28;20430;-81
2021/01/02 02:54:58;;;;;;;25.70;14.00;;;4.00;99.90;;;;;;4913913;28;20445;-84
2021/01/02 02:57:25;;;;;;;22.40;13.53;;;4.00;99.90;;;;;;4929801;28;20466;-83
2021/01/02 02:59:54;;;;;;;22.13;13.97;;;3.90;99.90;;;;;;4924686;28;20452;-83
2021/01/02 03:02:23;;;;;;;27.10;14.50;;;3.90;99.90;;;;;;4933429;28;20806;-84
2021/01/02 03:04:49;;;;;;;20.20;13.73;;;3.90;99.90;;;;;;4930531;28;20445;-82
2021/01/02 03:07:18;;;;;;;21.07;13.50;;;3.90;99.90;;;;;;4913390;28;20454;-81
2021/01/02 03:09:45;;;;;;;26.50;14.73;;;4.00;99.90;;;;;;4928374;28;20466;-83
2021/01/02 03:12:11;;;;;;;26.13;13.20;;;3.90;99.90;;;;;;4927665;28;20530;-82
2021/01/02 03:14:44;;;;;;;22.87;14.00;;;3.90;99.90;;;;;;4944383;28;20427;-84
2021/01/02 03:17:09;;;;;;;23.27;14.30;;;4.00;99.90;;;;;;4930584;28;20329;-82
2021/01/02 03:19:44;;;;;;;20.57;13.00;;;4.10;99.90;;;;;;4947509;28;20555;-80
2021/01/02 03:22:13;;;;;;;26.87;14.30;;;4.00;99.90;;;;;;4923932;28;20191;-82
2021/01/02 03:24:46;;;;;;;18.17;11.67;;;4.00;99.90;;;;;;4913117;28;20453;-84
2021/01/02 03:27:14;;;;;;;23.00;13.10;;;4.00;99.90;;;;;;4929858;28;20498;-83
2021/01/02 03:29:43;;;;;;;22.77;12.67;;;3.90;99.90;;;;;;4930792;28;20888;-83
2021/01/02 03:32:09;;;;;;;27.87;14.30;;;3.80;99.90;;;;;;4915941;28;20718;-81
2021/01/02 03:34:38;;;;;;;27.47;14.43;;;3.70;99.90;;;;;;4944134;28;20479;-84
2021/01/02 03:37:03;;;;;;;25.17;13.50;;;3.70;99.90;;;;;;4947706;28;20271;-82
2021/01/02 03:39:29;;;;;;;25.17;13.70;;;3.70;99.90;;;;;;4930187;28;20461;-81
2021/01/02 03:41:57;;;;;;;19.87;13.60;;;3.70;99.90;;;;;;4933412;28;20199;-82
2021/01/02 03:44:23;;;;;;;25.13;13.83;;;3.70;99.90;;;;;;4928334;28;20197;-82
2021/01/02 03:46:49;;;;;;;23.27;14.17;;;3.70;99.90;;;;;;4929816;28;20466;-85
2021/01/02 03:49:17;;;;;;;24.60;13.37;;;3.60;99.90;;;;;;4900658;28;20238;-81
2021/01/02 03:51:43;;;;;;;23.87;15.30;;;3.60;99.90;;;;;;4929821;28;20495;-81
2021/01/02 03:54:08;;;;;;;20.30;13.60;;;3.60;99.90;;;;;;4946816;28;20431;-84
2021/01/02 03:56:34;;;;;;;32.77;14.13;;;3.50;99.90;;;;;;4913922;28;20342;-82
2021/01/02 03:59:00;;;;;;;28.33;15.57;;;3.50;99.90;;;;;;4913711;28;20250;-81
2021/01/02 04:01:26;;;;;;;24.70;14.33;;;3.50;99.90;;;;;;4929471;28;20776;-83
2021/01/02 04:03:55;;;;;;;22.23;13.47;;;3.60;99.90;;;;;;4929795;28;20753;-83
2021/01/02 04:06:30;;;;;;;21.60;13.03;;;3.50;99.90;;;;;;4934807;28;20479;-82
2021/01/02 04:08:56;;;;;;;26.83;13.50;;;3.50;99.90;;;;;;4933875;28;20461;-81
2021/01/02 04:11:22;;;;;;;27.63;15.00;;;3.50;99.90;;;;;;4932724;28;20493;-84
2021/01/02 04:13:53;;;;;;;22.23;13.23;;;3.50;99.90;;;;;;4903311;28;20184;-84
2021/01/02 04:16:18;;;;;;;25.77;13.03;;;3.40;99.90;;;;;;4952359;28;20211;-83
2021/01/02 04:18:44;;;;;;;22.20;14.27;;;3.50;99.90;;;;;;4918676;28;20437;-83
2021/01/02 04:21:33;;;;;;;22.60;13.10;;;3.50;99.90;;;;;;4949540;28;20203;-84
2021/01/02 04:23:58;;;;;;;26.83;13.80;;;3.50;99.90;;;;;;4934046;28;20650;-84
2021/01/02 04:26:25;;;;;;;28.60;15.30;;;3.60;99.90;;;;;;4932163;28;20513;-83
2021/01/02 04:28:55;;;;;;;26.47;14.60;;;3.60;99.90;;;;;;4930463;28;20689;-83
2021/01/02 04:31:37;;;;;;;25.40;14.90;;;3.60;99.90;;;;;;4949120;28;20454;-83
2021/01/02 04:34:04;;;;;;;22.30;11.93;;;3.40;99.90;;;;;;4934063;28;20431;-82
2021/01/02 04:36:35;;;;;;;20.50;12.90;;;3.30;99.90;;;;;;4949654;28;20452;-80
2021/01/02 04:39:11;;;;;;;19.87;12.90;;;3.20;99.90;;;;;;4916814;28;20443;-84
2021/01/02 04:41:36;;;;;;;25.67;13.97;;;3.20;99.90;;;;;;4932191;28;20446;-83
2021/01/02 04:44:05;;;;;;;25.30;13.60;;;3.20;99.90;;;;;;4935980;28;20426;-84
2021/01/02 04:46:36;;;;;;;24.67;12.43;;;3.20;99.90;;;;;;4931724;28;20672;-80
2021/01/02 04:49:03;;;;;;;25.93;15.83;;;3.10;99.90;;;;;;4935470;28;20453;-84
2021/01/02 04:51:29;;;;;;;25.73;13.97;;;3.10;99.90;;;;;;4931465;28;20814;-82
2021/01/02 04:54:06;;;;;;;26.53;15.13;;;3.10;99.90;;;;;;4949894;28;20426;-83
2021/01/02 04:56:38;;;;;;;26.10;15.33;;;3.10;99.90;;;;;;4929672;28;20214;-81
2021/01/02 04:59:13;;;;;;;18.53;12.03;;;3.10;99.90;;;;;;4930964;28;20447;-81
2021/01/02 05:01:40;;;;;;;20.43;13.20;;;3.30;99.90;;;;;;4930823;28;20471;-81
2021/01/02 05:04:08;;;;;;;24.70;14.03;;;3.10;99.90;;;;;;4951667;28;20446;-81
2021/01/02 05:06:37;;;;;;;30.83;17.20;;;3.20;99.90;;;;;;4930119;28;21160;-83
2021/01/02 05:09:06;;;;;;;28.23;16.27;;;3.20;99.90;;;;;;4947515;28;20475;-83
2021/01/02 05:11:36;;;;;;;24.63;12.97;;;3.20;99.90;;;;;;4917544;28;20926;-82
2021/01/02 05:14:05;;;;;;;25.63;13.23;;;3.10;99.90;;;;;;4940126;28;20446;-81
2021/01/02 05:16:39;;;;;;;21.80;13.87;;;2.90;99.90;;;;;;4933134;28;20791;-83
2021/01/02 05:19:10;;;;;;;32.33;15.87;;;2.90;99.90;;;;;;4932746;28;20522;-81
2021/01/02 05:21:41;;;;;;;24.17;14.70;;;2.80;99.90;;;;;;4931157;28;20442;-82
2021/01/02 05:24:17;;;;;;;29.30;16.33;;;2.80;99.90;;;;;;4930901;28;20453;-83
2021/01/02 05:26:55;;;;;;;31.57;15.03;;;2.80;99.90;;;;;;4948123;28;20667;-80
2021/01/02 05:29:31;;;;;;;23.87;13.47;;;2.90;99.90;;;;;;4931605;28;20467;-82
2021/01/02 05:31:59;;;;;;;28.00;15.63;;;2.80;99.90;;;;;;4951227;28;20435;-82
2021/01/02 05:34:27;;;;;;;29.33;14.80;;;2.80;99.90;;;;;;4932259;28;20785;-82
2021/01/02 05:37:08;;;;;;;29.13;17.00;;;2.80;99.90;;;;;;4931631;28;20462;-83
2021/01/02 05:39:43;;;;;;;28.17;15.37;;;2.80;99.90;;;;;;4933557;28;20435;-85
2021/01/02 05:42:09;;;;;;;37.33;16.80;;;2.80;99.90;;;;;;4934130;28;20449;-82
2021/01/02 05:44:47;;;;;;;36.80;18.80;;;2.80;99.90;;;;;;4950766;28;20435;-84
2021/01/02 05:47:20;;;;;;;36.80;17.70;;;2.70;99.90;;;;;;4921158;28;20455;-84
2021/01/02 05:49:49;;;;;;;27.17;16.03;;;2.70;99.90;;;;;;4926428;28;20465;-84
2021/01/02 05:52:16;;;;;;;31.90;18.00;;;2.70;99.90;;;;;;4951901;28;20466;-81
2021/01/02 05:54:51;;;;;;;35.53;17.60;;;2.70;99.90;;;;;;4920917;28;20447;-84
2021/01/02 05:57:27;;;;;;;45.47;18.93;;;2.80;99.90;;;;;;4951645;28;20457;-84
2021/01/02 05:59:57;;;;;;;37.23;16.37;;;2.80;99.90;;;;;;4952580;28;20433;-84
2021/01/02 06:02:31;;;;;;;32.87;18.00;;;2.90;99.90;;;;;;4918646;28;20489;-85
2021/01/02 06:04:58;;;;;;;35.07;17.07;;;2.90;99.90;;;;;;4932197;28;20488;-82
2021/01/02 06:07:24;;;;;;;38.83;17.63;;;2.90;99.90;;;;;;4934385;28;20833;-82
2021/01/02 06:09:54;;;;;;;35.50;19.47;;;3.00;99.90;;;;;;4949977;28;20470;-84
2021/01/02 06:12:28;;;;;;;36.03;17.50;;;3.10;99.90;;;;;;4934524;28;20533;-84
2021/01/02 06:14:59;;;;;;;32.40;17.97;;;3.00;99.90;;;;;;4949764;28;20565;-82
2021/01/02 06:17:37;;;;;;;37.40;17.37;;;3.10;99.90;;;;;;4930560;28;20798;-83
2021/01/02 06:20:10;;;;;;;32.60;17.67;;;3.20;99.90;;;;;;4934395;28;20839;-80
2021/01/02 06:22:41;;;;;;;32.10;16.97;;;3.20;99.90;;;;;;4944951;28;20438;-84
2021/01/02 06:25:11;;;;;;;39.40;19.10;;;3.30;99.90;;;;;;4951651;28;20437;-82
2021/01/02 06:27:52;;;;;;;43.20;17.70;;;3.20;99.90;;;;;;4946364;28;20457;-84
2021/01/02 06:30:22;;;;;;;33.80;16.67;;;3.20;99.90;;;;;;4951600;28;20486;-79
2021/01/02 06:32:54;;;;;;;39.90;19.07;;;3.30;99.90;;;;;;4934117;28;20735;-82
2021/01/02 06:35:23;;;;;;;30.57;17.80;;;3.40;99.90;;;;;;4934342;28;20814;-83
2021/01/02 06:37:52;;;;;;;32.50;17.07;;;3.40;99.90;;;;;;4918870;28;20463;-84
2021/01/02 06:40:42;;;;;;;29.30;18.33;;;3.30;99.90;;;;;;4929202;28;20447;-80
2021/01/02 06:43:19;;;;;;;41.63;17.50;;;3.40;99.90;;;;;;4948387;28;20439;-84
2021/01/02 06:45:59;;;;;;;32.30;18.63;;;3.30;99.90;;;;;;4932152;28;20446;-80
2021/01/02 06:48:30;;;;;;;27.87;15.27;;;3.20;99.90;;;;;;4948594;28;20477;-81
2021/01/02 06:50:58;;;;;;;33.53;16.70;;;3.20;99.90;;;;;;4929237;28;20450;-81
2021/01/02 06:53:45;;;;;;;32.13;16.47;;;3.30;99.90;;;;;;4929038;28;20536;-81
2021/01/02 06:56:16;;;;;;;33.77;16.67;;;3.30;99.90;;;;;;4930568;29;20562;-84
2021/01/02 06:58:47;;;;;;;29.93;16.93;;;3.30;99.90;;;;;;4931198;28;20541;-84
2021/01/02 07:01:23;;;;;;;33.17;18.27;;;3.30;99.90;;;;;;4947604;28;20968;-83
2021/01/02 07:03:52;;;;;;;25.37;14.50;;;3.30;99.90;;;;;;4947666;28;20877;-83
2021/01/02 07:06:21;;;;;;;39.90;16.97;;;3.30;99.90;;;;;;4947641;28;20458;-82
2021/01/02 07:09:00;;;;;;;29.53;16.50;;;3.30;99.90;;;;;;4944544;28;20490;-81
2021/01/02 07:11:48;;;;;;;34.33;16.70;;;3.30;99.90;;;;;;4926716;28;20443;-83
2021/01/02 07:14:18;;;;;;;31.70;16.70;;;3.20;99.90;;;;;;4930703;28;20435;-80
2021/01/02 07:16:58;;;;;;;27.40;15.50;;;3.10;99.90;;;;;;4948803;28;20452;-78
2021/01/02 07:19:24;;;;;;;31.37;16.90;;;3.00;99.90;;;;;;4966501;28;20483;-81
2021/01/02 07:22:16;;;;;;;27.60;15.40;;;3.10;99.90;;;;;;4951031;28;20438;-83
2021/01/02 07:24:47;;;;;;;35.50;16.63;;;3.20;99.90;;;;;;4952738;28;20442;-82
2021/01/02 07:27:28;;;;;;;24.50;14.93;;;3.10;99.90;;;;;;4960809;28;20546;-82
2021/01/02 07:30:15;;;;;;;28.77;16.20;;;3.10;99.90;;;;;;4950737;28;20470;-82
2021/01/02 07:32:45;;;;;;;25.00;14.70;;;3.00;99.90;;;;;;4933359;28;20441;-83
2021/01/02 07:35:13;;;;;;;26.00;16.10;;;3.00;99.90;;;;;;4934544;28;20565;-81
2021/01/02 07:37:56;;;;;;;23.53;12.13;;;2.90;99.90;;;;;;4933208;28;20854;-83
2021/01/02 07:40:22;;;;;;;22.43;12.67;;;2.80;99.90;;;;;;4928121;28;20446;-83
2021/01/02 07:42:53;;;;;;;28.33;16.87;;;2.80;99.90;;;;;;4930463;28;20955;-83
2021/01/02 07:45:25;;;;;;;26.50;16.23;;;2.90;99.90;;;;;;4931216;28;20450;-82
2021/01/02 07:47:55;;;;;;;21.97;13.50;;;2.90;99.90;;;;;;4926703;28;20590;-82
2021/01/02 07:50:22;;;;;;;26.93;16.00;;;3.00;99.90;;;;;;4916737;28;20569;-81
2021/01/02 07:52:54;;;;;;;27.00;12.63;;;3.10;99.90;;;;;;4927199;28;20981;-82
2021/01/02 07:55:27;;;;;;;28.77;15.57;;;3.00;99.90;;;;;;4945661;28;20446;-80
2021/01/02 07:57:55;;;;;;;24.63;14.50;;;2.90;99.90;;;;;;4939174;28;20431;-82
2021/01/02 08:00:30;;;;;;;32.23;17.17;;;2.80;99.90;;;;;;4937815;28;20442;-79
2021/01/02 08:03:04;;;;;;;22.70;14.80;;;2.90;99.90;;;;;;4935685;28;20422;-81
2021/01/02 08:05:33;;;;;;;31.17;16.90;;;3.10;99.90;;;;;;4918483;28;20450;-80
2021/01/02 08:08:02;;;;;;;27.57;15.40;;;3.10;99.90;;;;;;4953163;28;20467;-81
2021/01/02 08:10:38;;;;;;;26.70;15.43;;;3.20;99.90;;;;;;4914957;28;20517;-81
2021/01/02 08:13:11;;;;;;;30.03;15.37;;;3.30;99.90;;;;;;4926980;28;21269;-82
2021/01/02 08:15:43;;;;;;;29.10;15.97;;;3.00;99.90;;;;;;4926410;28;20805;-82
2021/01/02 08:18:10;;;;;;;28.27;15.63;;;3.10;99.90;;;;;;4928755;28;20839;-84
2021/01/02 08:20:44;;;;;;;32.23;16.43;;;2.90;99.90;;;;;;4951815;28;20906;-83
2021/01/02 08:23:13;;;;;;;28.00;15.87;;;3.00;99.90;;;;;;4934568;28;20484;-85
2021/01/02 08:25:43;;;;;;;27.90;13.90;;;2.90;99.90;;;;;;4955547;28;20484;-81
2021/01/02 08:28:19;;;;;;;27.80;15.43;;;2.90;99.90;;;;;;4932460;28;20446;-83
2021/01/02 08:30:48;;;;;;;32.13;16.23;;;2.90;99.90;;;;;;4938276;28;20473;-83
2021/01/02 08:33:16;;;;;;;28.73;16.23;;;2.80;99.90;;;;;;4936356;28;20850;-83
2021/01/02 08:35:47;;;;;;;30.73;16.47;;;3.00;99.90;;;;;;4934741;28;20426;-82
2021/01/02 08:38:37;;;;;;;39.20;17.07;;;3.10;99.90;;;;;;4931186;28;20860;-82
2021/01/02 08:41:05;;;;;;;31.37;16.73;;;3.20;99.90;;;;;;4926095;28;20439;-78
2021/01/02 08:43:33;;;;;;;33.13;16.07;;;3.40;99.90;;;;;;4922204;28;20664;-81
2021/01/02 08:46:13;;;;;;;28.30;17.17;;;3.40;99.90;;;;;;4944717;28;20442;-84
2021/01/02 08:48:49;;;;;;;30.90;17.10;;;3.50;99.90;;;;;;4928369;28;21103;-81
2021/01/02 08:51:44;;;;;;;33.33;15.33;;;3.40;99.90;;;;;;4923170;28;20439;-82
2021/01/02 08:54:16;;;;;;;33.80;16.20;;;3.50;99.90;;;;;;4935107;28;20493;-79
2021/01/02 08:56:44;;;;;;;34.40;16.97;;;3.60;99.90;;;;;;4936131;28;20988;-82
2021/01/02 08:59:19;;;;;;;31.80;17.03;;;3.70;99.90;;;;;;4932602;28;20453;-80
2021/01/02 09:01:49;;;;;;;30.13;15.50;;;3.70;99.90;;;;;;4949015;28;20529;-83
2021/01/02 09:04:18;;;;;;;28.00;16.00;;;3.80;99.90;;;;;;4919725;28;20454;-83
2021/01/02 09:06:43;;;;;;;35.27;16.30;;;3.80;99.90;;;;;;4950861;28;20465;-82
2021/01/02 09:09:14;;;;;;;25.87;15.23;;;3.80;99.90;;;;;;4942857;28;20660;-82
2021/01/02 09:11:52;;;;;;;32.03;15.87;;;3.90;99.90;;;;;;4914143;28;22602;-83
2021/01/02 09:14:29;;;;;;;26.33;16.57;;;3.90;99.90;;;;;;4932648;28;20816;-83
2021/01/02 09:17:07;;;;;;;27.13;15.60;;;4.00;99.90;;;;;;4929307;28;21017;-82
2021/01/02 09:19:41;;;;;;;20.30;13.13;;;3.70;99.90;;;;;;4929602;28;20760;-81
2021/01/02 09:22:26;;;;;;;26.43;15.37;;;3.60;99.90;;;;;;4927922;28;20461;-82
2021/01/02 09:25:16;;;;;;;25.13;14.20;;;3.40;99.90;;;;;;4927264;28;20446;-81
2021/01/02 09:27:45;;;;;;;31.63;16.30;;;3.60;99.90;;;;;;4933479;28;20493;-80
2021/01/02 09:30:18;;;;;;;30.60;17.83;;;3.80;99.90;;;;;;4945646;28;20471;-84
2021/01/02 09:32:53;;;;;;;30.23;14.93;;;4.00;99.90;;;;;;4929873;28;20746;-79
2021/01/02 09:35:21;;;;;;;29.97;16.50;;;4.10;99.90;;;;;;4925823;28;20423;-82
2021/01/02 09:44:15;;;;;;;26.10;15.10;;;4.10;99.90;;;;;;4942939;28;20483;-80
2021/01/02 09:46:51;;;;;;;20.40;12.07;;;4.20;99.90;;;;;;4920783;28;20553;-79
2021/01/02 09:49:17;;;;;;;26.17;15.97;;;4.30;99.90;;;;;;4932479;28;20222;-81
2021/01/02 09:51:42;;;;;;;30.20;16.33;;;4.30;99.90;;;;;;4946487;28;20428;-81
2021/01/02 09:54:08;;;;;;;29.40;15.53;;;4.20;99.90;;;;;;4943477;28;20186;-79
2021/01/02 09:56:35;;;;;;;24.63;14.63;;;4.30;99.90;;;;;;4944679;28;20242;-79
2021/01/02 09:59:01;;;;;;;27.63;16.97;;;4.20;99.90;;;;;;4942837;28;20454;-79
2021/01/02 10:01:27;;;;;;;28.80;14.70;;;4.20;99.90;;;;;;4947245;28;20457;-81
2021/01/02 10:03:52;;;;;;;22.37;15.60;;;4.40;99.90;;;;;;4935174;28;20297;-82
2021/01/02 10:06:18;;;;;;;26.60;15.67;;;4.50;99.90;;;;;;4917133;28;20215;-82
2021/01/02 10:08:44;;;;;;;23.30;14.80;;;4.50;99.90;;;;;;4946453;28;20221;-81
2021/01/02 10:11:09;;;;;;;23.50;13.13;;;4.50;99.90;;;;;;4927337;28;20320;-82
2021/01/02 10:13:35;;;;;;;21.33;13.00;;;4.50;99.90;;;;;;4948111;28;20195;-81
2021/01/02 10:16:00;;;;;;;23.87;14.07;;;4.50;99.90;;;;;;4933111;29;20207;-81
2021/01/02 10:18:26;;;;;;;22.37;13.33;;;4.30;99.90;;;;;;4918095;28;20222;-82
2021/01/02 10:20:52;;;;;;;30.23;16.60;;;4.20;99.90;;;;;;4927985;28;20195;-83
2021/01/02 10:23:17;;;;;;;21.07;12.80;;;4.30;99.90;;;;;;4950100;28;20659;-81
2021/01/02 10:25:43;;;;;;;22.37;13.30;;;4.50;99.90;;;;;;4934150;28;20314;-81
2021/01/02 10:28:09;;;;;;;25.67;14.60;;;4.40;99.90;;;;;;4949644;28;20210;-83
2021/01/02 10:30:35;;;;;;;20.20;13.73;;;4.30;99.90;;;;;;4934634;28;20985;-81
2021/01/02 10:33:00;;;;;;;23.37;13.63;;;4.30;99.90;;;;;;4932833;28;20697;-81
2021/01/02 10:35:29;;;;;;;20.00;12.70;;;4.50;99.90;;;;;;4917942;28;20191;-82
2021/01/02 10:37:54;;;;;;;24.03;14.20;;;4.70;99.90;;;;;;4934395;28;20191;-82
2021/01/02 10:40:34;;;;;;;24.30;14.23;;;4.70;99.90;;;;;;4921849;28;20588;-81
2021/01/02 10:44:04;;;;;;;23.53;14.60;;;4.90;99.90;;;;;;4926731;28;20199;-86
2021/01/02 10:46:45;;;;;;;20.47;13.97;;;5.20;99.90;;;;;;4883081;29;20472;-86
2021/01/02 10:49:14;;;;;;;19.90;12.93;;;5.30;99.90;;;;;;4890511;28;20482;-84
2021/01/02 10:52:02;;;;;;;20.03;13.93;;;5.30;99.90;;;;;;4942199;28;20868;-84
2021/01/02 10:54:36;;;;;;;23.23;13.33;;;5.30;99.90;;;;;;4921298;28;20448;-82
2021/01/02 10:57:07;;;;;;;19.33;13.03;;;5.30;99.90;;;;;;4941771;28;20461;-83
2021/01/02 10:59:32;;;;;;;22.77;13.07;;;5.40;99.90;;;;;;4929018;28;20458;-83
2021/01/02 11:01:58;;;;;;;19.90;12.27;;;5.50;99.90;;;;;;4921647;28;20452;-83
2021/01/02 11:04:42;;;;;;;23.37;14.23;;;5.70;99.90;;;;;;4936693;28;20203;-83
2021/01/02 11:07:17;;;;;;;21.60;14.10;;;5.70;99.90;;;;;;4930999;28;20242;-85
2021/01/02 11:09:44;;;;;;;22.40;13.00;;;5.70;99.90;;;;;;4923112;28;20478;-85
2021/01/02 11:12:31;;;;;;;16.20;12.10;;;5.70;99.90;;;;;;4940046;28;20444;-83
2021/01/02 11:14:58;;;;;;;17.30;10.50;;;5.80;99.90;;;;;;4910154;28;20466;-81
2021/01/02 11:17:23;;;;;;;22.47;11.93;;;5.80;99.90;;;;;;4921584;28;20458;-81
2021/01/02 11:19:49;;;;;;;21.47;12.60;;;5.70;99.90;;;;;;4925588;28;20438;-81
2021/01/02 11:22:21;;;;;;;18.67;11.83;;;5.60;99.90;;;;;;4925879;28;20206;-82
2021/01/02 11:24:46;;;;;;;16.00;10.80;;;5.50;99.90;;;;;;4924122;28;20265;-83
2021/01/02 11:27:40;;;;;;;;;;;;;;;;;;;;;
2021/01/02 11:30:07;;;;;;;16.10;10.17;;;5.30;99.90;;;;;;4942237;28;20219;-82
2021/01/02 11:32:45;;;;;;;17.87;10.67;;;5.10;99.90;;;;;;4940187;28;21184;-84
2021/01/02 11:35:11;;;;;;;17.40;11.23;;;5.10;99.90;;;;;;4927459;28;20442;-81
2021/01/02 11:37:37;;;;;;;19.50;12.27;;;5.40;99.90;;;;;;4928141;28;20456;-79
2021/01/02 11:40:04;;;;;;;16.90;10.70;;;5.40;99.90;;;;;;4927845;28;20473;-81
2021/01/02 11:42:29;;;;;;;19.77;11.33;;;5.40;99.90;;;;;;4915725;28;20207;-82
2021/01/02 11:44:55;;;;;;;18.43;11.37;;;5.50;99.90;;;;;;4946242;28;21012;-82
2021/01/02 11:47:21;;;;;;;13.97;9.07;;;5.60;99.90;;;;;;4919908;28;20219;-80
2021/01/02 11:49:48;;;;;;;18.50;9.73;;;5.60;99.90;;;;;;4933117;28;20198;-81
2021/01/02 11:52:13;;;;;;;18.73;11.80;;;5.40;99.90;;;;;;4928582;28;20188;-82
2021/01/02 11:54:41;;;;;;;15.63;10.17;;;5.50;99.90;;;;;;4952141;28;20918;-82
2021/01/02 11:57:06;;;;;;;14.93;11.17;;;5.60;99.90;;;;;;4945976;28;20199;-83
2021/01/02 11:59:33;;;;;;;16.17;10.77;;;5.40;99.90;;;;;;4946283;28;20449;-84
2021/01/02 12:02:01;;;;;;;18.63;10.63;;;5.40;99.90;;;;;;4945524;28;20203;-83
2021/01/02 12:04:29;;;;;;;20.50;11.30;;;5.30;99.90;;;;;;4931125;28;20427;-83
2021/01/02 12:07:01;;;;;;;16.60;11.80;;;5.20;99.90;;;;;;4945270;28;20446;-81
2021/01/02 12:09:29;;;;;;;16.90;10.47;;;5.30;99.90;;;;;;4947409;28;20461;-82
2021/01/02 12:11:55;;;;;;;19.30;10.70;;;5.40;99.90;;;;;;4944856;28;20487;-84
2021/01/02 12:14:24;;;;;;;18.17;10.90;;;5.50;99.90;;;;;;4945159;28;20586;-79
2021/01/02 12:16:52;;;;;;;15.97;10.40;;;5.60;99.90;;;;;;4944113;28;20631;-82
2021/01/02 12:19:21;;;;;;;17.83;10.77;;;5.80;99.90;;;;;;4914407;28;20434;-81
2021/01/02 12:21:47;;;;;;;9.93;7.10;;;5.70;99.90;;;;;;4934921;28;20879;-83
2021/01/02 12:24:13;;;;;;;9.10;6.90;;;5.30;99.90;;;;;;4913697;28;20443;-80
2021/01/02 12:26:46;;;;;;;15.33;8.57;;;5.20;99.90;;;;;;4934773;28;20211;-81
2021/01/02 12:29:14;;;;;;;14.43;10.00;;;5.20;99.90;;;;;;4949242;28;20490;-83
2021/01/02 12:31:41;;;;;;;15.70;10.57;;;5.20;99.90;;;;;;4951490;28;20446;-81
2021/01/02 12:34:07;;;;;;;16.70;10.70;;;5.20;99.90;;;;;;4948312;28;20431;-81
2021/01/02 12:36:42;;;;;;;15.20;9.23;;;5.20;99.90;;;;;;4933038;28;20496;-81
2021/01/02 12:39:10;;;;;;;15.83;9.23;;;5.30;99.90;;;;;;4933129;28;20790;-83
2021/01/02 12:41:36;;;;;;;13.50;9.53;;;5.20;99.90;;;;;;4930788;28;20443;-83
2021/01/02 12:44:04;;;;;;;13.40;8.53;;;5.30;99.90;;;;;;4953749;28;20693;-83
2021/01/02 12:46:41;;;;;;;14.30;8.87;;;5.30;99.90;;;;;;4932059;28;20218;-84
2021/01/02 12:49:08;;;;;;;14.50;8.37;;;5.30;99.90;;;;;;4950053;28;20473;-82
2021/01/02 12:51:34;;;;;;;11.70;9.30;;;5.30;99.90;;;;;;4952044;28;20478;-81
2021/01/02 12:54:00;;;;;;;11.80;8.10;;;5.30;99.90;;;;;;4933752;28;20580;-82
2021/01/02 12:56:26;;;;;;;12.53;8.73;;;5.30;99.90;;;;;;4920215;28;20784;-82
2021/01/02 12:58:51;;;;;;;14.03;8.53;;;5.20;99.90;;;;;;4902311;28;20187;-80
2021/01/02 13:01:17;;;;;;;9.63;7.13;;;5.20;99.90;;;;;;4935532;28;20211;-84
2021/01/02 13:03:43;;;;;;;10.93;7.37;;;5.20;99.90;;;;;;4922815;28;20374;-83
2021/01/02 13:06:13;;;;;;;10.63;7.17;;;5.10;99.90;;;;;;4949624;28;20199;-81
2021/01/02 13:08:39;;;;;;;11.87;8.17;;;5.00;99.90;;;;;;4948124;28;20968;-82
2021/01/02 13:11:08;;;;;;;11.57;6.80;;;5.00;99.90;;;;;;4919282;28;20478;-82